Time;durP1;ratioP1;P1;durP2;ratioP2;P2;SDS_P1;SDS_P2;PMS_P1;PMS_P2;Temp;Humidity;BMP_temperature;BMP_pressure;BME280_temperature;BME280_humidity;BME280_pressure;Samples;Min_cycle;Max_cycle;Signal;HPM_P1;HPM_P2
2023/03/26 00:04:58;;;;;;;3.13;1.23;;;15.10;73.60;;;;;;10449735;28;20104;-54
2023/03/26 00:09:59;;;;;;;5.20;2.20;;;15.10;73.60;;;;;;10448005;28;20108;-54
2023/03/26 00:15:00;;;;;;;4.00;1.23;;;15.10;73.60;;;;;;10447193;28;20700;-54
2023/03/26 00:20:00;;;;;;;2.65;1.08;;;15.10;73.60;;;;;;10447177;28;20111;-53
2023/03/26 00:25:01;;;;;;;4.25;2.08;;;15.10;73.60;;;;;;10448398;28;20029;-56
2023/03/26 00:30:02;;;;;;;6.40;1.30;;;15.10;73.50;;;;;;10448399;28;20372;-54
2023/03/26 00:35:04;;;;;;;4.32;1.25;;;15.10;73.70;;;;;;10448019;28;20563;-53
2023/03/26 00:40:06;;;;;;;4.10;1.42;;;15.10;73.80;;;;;;10446900;28;20044;-53
2023/03/26 00:45:07;;;;;;;5.93;1.38;;;15.10;74.30;;;;;;10447602;28;20036;-54
2023/03/26 00:50:14;;;;;;;2.55;1.02;;;15.10;73.60;;;;;;10446556;28;20171;-53
2023/03/26 00:55:15;;;;;;;5.88;1.20;;;15.10;73.70;;;;;;10449257;28;20029;-53
2023/03/26 01:00:26;;;;;;;3.03;1.00;;;15.10;73.70;;;;;;10447433;28;20424;-54
2023/03/26 01:05:33;;;;;;;4.25;1.33;;;15.10;73.70;;;;;;10446598;28;20025;-54
2023/03/26 01:10:37;;;;;;;3.58;1.30;;;15.10;73.70;;;;;;10446772;28;20064;-52
2023/03/26 01:15:38;;;;;;;6.22;1.90;;;15.00;73.60;;;;;;10446608;28;20033;-54
2023/03/26 01:20:45;;;;;;;4.80;1.40;;;15.00;73.60;;;;;;10446084;28;20025;-53
2023/03/26 01:26:00;;;;;;;4.30;2.00;;;15.00;73.50;;;;;;10445078;28;20440;-54
2023/03/26 01:31:24;;;;;;;9.63;1.67;;;15.00;73.50;;;;;;10444095;28;20108;-56
2023/03/26 01:36:41;;;;;;;3.17;1.55;;;15.00;73.50;;;;;;10447148;28;20376;-52
2023/03/26 01:41:53;;;;;;;3.75;1.77;;;15.00;73.50;;;;;;10445354;28;20037;-53
2023/03/26 01:46:55;;;;;;;3.70;1.52;;;15.00;73.50;;;;;;10444875;28;20025;-54
2023/03/26 01:51:57;;;;;;;6.50;1.20;;;15.00;73.50;;;;;;10444087;28;20033;-54
2023/03/26 01:57:28;;;;;;;4.57;1.90;;;15.00;73.40;;;;;;10448475;28;20025;-54
2023/03/26 02:03:07;;;;;;;7.28;1.73;;;15.00;73.50;;;;;;10445807;28;20107;-50
2023/03/26 02:08:15;;;;;;;3.30;1.15;;;15.00;73.40;;;;;;10444913;28;20024;-54
2023/03/26 02:13:16;;;;;;;3.15;1.13;;;15.00;73.40;;;;;;10444886;28;20056;-53
2023/03/26 02:18:22;;;;;;;4.40;1.55;;;15.00;73.40;;;;;;10433109;28;20025;-54
2023/03/26 02:23:23;;;;;;;3.63;0.90;;;15.00;73.50;;;;;;10445483;28;20033;-55
2023/03/26 02:28:24;;;;;;;3.38;0.90;;;14.90;73.40;;;;;;10444662;28;20096;-54
2023/03/26 02:33:25;;;;;;;3.50;1.20;;;14.90;73.40;;;;;;10444926;28;20095;-54
2023/03/26 02:38:26;;;;;;;3.08;1.30;;;15.00;73.50;;;;;;10445141;28;20106;-53
2023/03/26 02:43:27;;;;;;;3.08;1.25;;;15.00;73.40;;;;;;10446599;28;20021;-54
2023/03/26 02:48:28;;;;;;;2.22;0.95;;;14.90;73.40;;;;;;10451353;28;20052;-53
2023/03/26 02:53:29;;;;;;;2.80;1.05;;;14.90;73.40;;;;;;10439878;28;20608;-53
2023/03/26 02:58:30;;;;;;;3.20;1.00;;;14.90;73.40;;;;;;10450267;28;20040;-53
2023/03/26 03:03:30;;;;;;;3.50;1.13;;;14.90;73.50;;;;;;10451892;28;20041;-53
2023/03/26 03:08:31;;;;;;;4.93;1.42;;;15.00;73.40;;;;;;10450443;28;20082;-54
2023/03/26 03:13:32;;;;;;;5.07;0.90;;;15.20;72.50;;;;;;10448835;28;20075;-55
2023/03/26 03:18:33;;;;;;;2.78;1.10;;;15.50;71.30;;;;;;10451435;28;20021;-55
2023/03/26 03:23:35;;;;;;;3.45;1.00;;;15.90;70.40;;;;;;10449648;28;20017;-53
2023/03/26 03:28:35;;;;;;;3.13;1.00;;;16.10;69.50;;;;;;10449451;28;20021;-54
2023/03/26 03:33:36;;;;;;;2.63;1.00;;;16.30;68.90;;;;;;10449119;28;20112;-55
2023/03/26 03:38:40;;;;;;;3.38;1.20;;;16.60;68.20;;;;;;10450522;28;20033;-55
2023/03/26 03:43:40;;;;;;;5.43;2.08;;;16.70;67.80;;;;;;10449028;28;20027;-54
2023/03/26 03:48:46;;;;;;;2.47;1.00;;;16.80;67.60;;;;;;10449982;28;20503;-54
2023/03/26 03:53:48;;;;;;;2.35;0.90;;;16.80;67.70;;;;;;10435138;28;20032;-54
2023/03/26 03:58:50;;;;;;;3.40;1.88;;;16.70;67.90;;;;;;10449869;28;20048;-54
2023/03/26 04:03:51;;;;;;;4.07;0.82;;;16.70;68.20;;;;;;10449383;28;20056;-53
2023/03/26 04:08:51;;;;;;;3.22;1.05;;;16.60;68.40;;;;;;10431531;28;20100;-53
2023/03/26 04:13:52;;;;;;;3.63;1.10;;;16.50;68.80;;;;;;10448921;28;20048;-55
2023/03/26 04:18:53;;;;;;;5.63;1.48;;;16.50;68.90;;;;;;10464197;28;20045;-53
2023/03/26 04:23:53;;;;;;;2.08;0.82;;;16.50;68.80;;;;;;10447515;28;20025;-54
2023/03/26 04:28:59;;;;;;;3.20;1.00;;;16.50;69.00;;;;;;10448508;28;20025;-52
2023/03/26 04:34:17;;;;;;;2.75;1.00;;;16.40;69.20;;;;;;10448842;28;20041;-53
2023/03/26 04:39:18;;;;;;;3.50;1.00;;;16.50;69.20;;;;;;10448202;28;20016;-54
2023/03/26 04:44:21;;;;;;;2.97;1.10;;;16.40;69.10;;;;;;10446885;28;20027;-54
2023/03/26 04:49:21;;;;;;;3.17;0.90;;;16.40;69.30;;;;;;10446416;28;20560;-54
2023/03/26 04:54:23;;;;;;;3.47;1.00;;;16.40;69.30;;;;;;10445105;28;20021;-54
2023/03/26 04:59:33;;;;;;;4.05;1.65;;;16.50;69.00;;;;;;10442309;28;20017;-53
2023/03/26 05:04:35;;;;;;;2.30;0.95;;;16.50;68.90;;;;;;10452231;28;20682;-54
2023/03/26 05:09:36;;;;;;;3.53;1.65;;;16.40;69.30;;;;;;10414045;28;20045;-53
2023/03/26 05:14:37;;;;;;;3.88;1.05;;;16.50;69.20;;;;;;10436122;28;20597;-53
2023/03/26 05:19:38;;;;;;;5.28;1.02;;;16.50;69.20;;;;;;10421261;28;20024;-50
2023/03/26 05:24:39;;;;;;;5.72;1.30;;;16.40;69.80;;;;;;10424789;28;20029;-53
2023/03/26 05:29:39;;;;;;;7.30;1.45;;;16.50;70.30;;;;;;10427386;28;20064;-54
2023/03/26 05:34:40;;;;;;;10.93;6.20;;;16.50;72.40;;;;;;10445496;28;20757;-54
2023/03/26 05:39:42;;;;;;;7.65;2.55;;;16.50;73.10;;;;;;10460855;28;20049;-54
2023/03/26 05:44:43;;;;;;;5.25;2.83;;;16.50;72.40;;;;;;10442736;28;20087;-53
2023/03/26 05:49:45;;;;;;;7.72;3.33;;;16.40;73.00;;;;;;10445651;28;20091;-53
2023/03/26 05:54:45;;;;;;;9.88;2.63;;;16.40;73.30;;;;;;10448175;28;20526;-55
2023/03/26 05:59:46;;;;;;;13.45;3.70;;;16.30;73.50;;;;;;10444465;28;20070;-54
2023/03/26 06:04:46;;;;;;;8.00;3.10;;;16.20;73.80;;;;;;10445043;28;20687;-55
2023/03/26 06:09:48;;;;;;;10.55;3.10;;;16.10;73.80;;;;;;10444465;28;20124;-56
2023/03/26 06:14:48;;;;;;;13.00;3.20;;;16.20;74.60;;;;;;10443111;28;20056;-55
2023/03/26 06:19:49;;;;;;;26.02;5.20;;;16.20;73.90;;;;;;10450050;28;20338;-54
2023/03/26 06:24:51;;;;;;;9.25;3.05;;;16.10;74.10;;;;;;10452545;28;20025;-54
2023/03/26 06:29:52;;;;;;;7.32;3.05;;;16.00;74.40;;;;;;10432816;28;20093;-53
2023/03/26 06:34:53;;;;;;;8.60;3.45;;;16.00;74.50;;;;;;10449506;28;20066;-54
2023/03/26 06:39:53;;;;;;;9.82;3.80;;;16.00;74.50;;;;;;10447532;28;20021;-53
2023/03/26 06:44:54;;;;;;;5.75;3.67;;;16.00;74.30;;;;;;10452581;28;20056;-54
2023/03/26 06:49:55;;;;;;;7.20;3.35;;;15.90;74.60;;;;;;10450794;28;20093;-54
2023/03/26 06:54:55;;;;;;;5.38;2.97;;;15.90;74.60;;;;;;10449650;28;20539;-53
2023/03/26 06:59:56;;;;;;;8.77;3.70;;;15.90;74.80;;;;;;10449660;28;20476;-54
2023/03/26 07:04:57;;;;;;;8.50;2.97;;;15.90;74.80;;;;;;10451980;28;20036;-53
2023/03/26 07:09:58;;;;;;;5.20;3.95;;;15.90;74.70;;;;;;10466791;28;20094;-52
2023/03/26 07:15:02;;;;;;;6.90;2.85;;;15.90;74.60;;;;;;10450443;28;20110;-53
2023/03/26 07:20:06;;;;;;;18.98;2.85;;;15.80;74.60;;;;;;10449994;28;20713;-53
2023/03/26 07:25:07;;;;;;;11.52;2.83;;;16.00;74.30;;;;;;10449387;28;20033;-54
2023/03/26 07:30:20;;;;;;;5.78;2.85;;;15.90;73.70;;;;;;10448736;28;20025;-54
2023/03/26 07:35:47;;;;;;;7.00;3.60;;;15.80;74.20;;;;;;10455596;28;20029;-53
2023/03/26 07:41:15;;;;;;;7.93;2.15;;;15.70;74.60;;;;;;10449260;28;20033;-54
2023/03/26 07:46:22;;;;;;;9.30;2.47;;;15.60;74.70;;;;;;10450539;28;20020;-53
2023/03/26 07:51:24;;;;;;;7.70;3.53;;;15.60;74.70;;;;;;10448240;28;20492;-54
2023/03/26 07:56:56;;;;;;;5.03;2.13;;;15.60;74.60;;;;;;10436491;28;20074;-52
2023/03/26 08:02:29;;;;;;;8.90;2.88;;;15.60;74.50;;;;;;10438191;28;20021;-54
2023/03/26 08:08:19;;;;;;;11.10;3.15;;;15.50;74.60;;;;;;10438670;28;20044;-53
2023/03/26 08:13:47;;;;;;;9.90;2.80;;;15.70;74.20;;;;;;10403201;28;20144;-53
2023/03/26 08:19:20;;;;;;;10.93;2.95;;;15.60;75.00;;;;;;10437012;28;20033;-53
2023/03/26 08:25:00;;;;;;;10.18;3.42;;;15.70;74.40;;;;;;10446886;28;20045;-53
2023/03/26 08:30:17;;;;;;;12.13;2.63;;;15.70;74.70;;;;;;10422421;28;20173;-54
2023/03/26 08:35:18;;;;;;;12.68;2.60;;;15.70;75.20;;;;;;10443000;28;20021;-56
2023/03/26 08:40:54;;;;;;;16.38;3.15;;;15.70;75.10;;;;;;10431244;28;20025;-54
2023/03/26 08:46:41;;;;;;;12.15;4.18;;;15.60;75.40;;;;;;10438129;28;20025;-55
2023/03/26 08:52:33;;;;;;;11.98;3.15;;;15.60;75.50;;;;;;10437934;28;20029;-54
2023/03/26 08:58:07;;;;;;;17.10;3.10;;;15.70;75.40;;;;;;10417946;28;20108;-55
2023/03/26 09:03:49;;;;;;;15.02;3.22;;;15.70;75.50;;;;;;10425132;28;20513;-56
2023/03/26 09:09:41;;;;;;;26.77;4.28;;;15.70;75.80;;;;;;10431752;28;20070;-54
2023/03/26 09:14:54;;;;;;;18.20;4.28;;;15.70;75.70;;;;;;10432311;28;20136;-55
2023/03/26 09:20:25;;;;;;;19.83;4.00;;;15.70;75.40;;;;;;10446461;28;20502;-52
2023/03/26 09:25:41;;;;;;;23.88;4.63;;;15.80;75.60;;;;;;10444243;28;20364;-56
2023/03/26 09:31:17;;;;;;;27.40;4.13;;;15.90;76.00;;;;;;10443816;28;20365;-55
2023/03/26 09:36:51;;;;;;;23.23;4.88;;;15.90;76.10;;;;;;10442798;28;20032;-53
2023/03/26 09:42:21;;;;;;;16.50;3.47;;;15.90;75.90;;;;;;10445664;28;20025;-49
2023/03/26 09:47:41;;;;;;;25.60;3.65;;;15.90;76.10;;;;;;10441541;28;20037;-54
2023/03/26 09:53:03;;;;;;;13.97;3.57;;;15.80;75.70;;;;;;10439925;28;20057;-55
2023/03/26 09:58:19;;;;;;;14.13;3.60;;;15.70;75.70;;;;;;10450692;28;20465;-55
2023/03/26 10:03:20;;;;;;;13.88;3.67;;;15.70;75.40;;;;;;10453836;28;20598;-55
2023/03/26 10:08:34;;;;;;;12.90;3.30;;;15.70;75.40;;;;;;10454288;28;20033;-54
2023/03/26 10:14:06;;;;;;;14.52;4.22;;;15.60;75.20;;;;;;10453254;28;20037;-53
2023/03/26 10:20:17;;;;;;;8.90;3.15;;;15.70;75.20;;;;;;10437137;28;20013;-54
2023/03/26 10:25:51;;;;;;;10.35;3.33;;;15.70;75.00;;;;;;10442842;28;20436;-54
2023/03/26 10:31:35;;;;;;;8.40;2.78;;;15.60;74.90;;;;;;10452822;28;20033;-54
2023/03/26 10:36:46;;;;;;;9.75;3.10;;;15.60;75.10;;;;;;10452989;28;20092;-53
2023/03/26 10:41:53;;;;;;;17.10;3.53;;;15.80;75.00;;;;;;10435417;28;20078;-54
2023/03/26 10:47:18;;;;;;;23.05;5.13;;;15.90;75.00;;;;;;10447213;28;20480;-55
2023/03/26 10:52:28;;;;;;;15.15;4.22;;;15.80;75.50;;;;;;10441999;28;20614;-56
2023/03/26 10:57:53;;;;;;;12.30;3.65;;;15.90;75.00;;;;;;10450031;28;20499;-55
2023/03/26 11:03:12;;;;;;;16.67;5.07;;;16.00;75.20;;;;;;10452086;28;20658;-53
2023/03/26 11:08:28;;;;;;;15.45;4.50;;;16.30;75.70;;;;;;10451807;28;20047;-55
2023/03/26 11:13:38;;;;;;;16.65;5.22;;;16.40;75.10;;;;;;10439950;28;20064;-56
2023/03/26 11:18:50;;;;;;;13.93;3.80;;;16.40;74.80;;;;;;10441037;28;20010;-56
2023/03/26 11:24:25;;;;;;;29.25;4.50;;;16.20;74.80;;;;;;10444958;28;20074;-54
2023/03/26 11:30:02;;;;;;;23.20;4.28;;;16.20;75.50;;;;;;10449183;28;20022;-54
2023/03/26 11:35:25;;;;;;;29.33;6.55;;;16.30;75.70;;;;;;10450911;28;20029;-54
2023/03/26 11:40:40;;;;;;;24.40;5.10;;;16.20;75.60;;;;;;10434218;28;20063;-54
2023/03/26 11:45:45;;;;;;;24.90;5.30;;;16.20;76.30;;;;;;10433427;28;20127;-55
2023/03/26 11:50:57;;;;;;;24.02;5.50;;;16.20;75.60;;;;;;10448497;28;20036;-56
2023/03/26 11:56:07;;;;;;;20.63;5.60;;;16.10;75.70;;;;;;10462525;28;20090;-49
2023/03/26 12:01:29;;;;;;;16.75;4.28;;;16.00;75.70;;;;;;10449866;28;20025;-56
2023/03/26 12:06:31;;;;;;;21.58;4.32;;;15.90;75.50;;;;;;10448145;28;20052;-56
2023/03/26 12:11:34;;;;;;;13.45;3.88;;;15.90;76.30;;;;;;10449298;28;20037;-56
2023/03/26 12:16:35;;;;;;;21.88;4.57;;;15.80;75.90;;;;;;10447425;28;20070;-56
2023/03/26 12:21:48;;;;;;;19.08;4.35;;;15.80;76.80;;;;;;10447541;28;20049;-57
2023/03/26 12:27:01;;;;;;;17.13;4.95;;;15.80;76.20;;;;;;10447485;28;20021;-56
2023/03/26 12:32:13;;;;;;;38.25;7.45;;;15.90;76.00;;;;;;10447552;28;20116;-57
2023/03/26 12:37:37;;;;;;;45.08;7.13;;;15.80;76.50;;;;;;10441410;28;20029;-52
2023/03/26 12:42:40;;;;;;;15.55;4.45;;;15.90;76.50;;;;;;10437131;28;20032;-55
2023/03/26 12:47:41;;;;;;;18.58;4.97;;;15.70;76.10;;;;;;10447590;28;20484;-56
2023/03/26 12:53:14;;;;;;;11.60;4.55;;;15.70;76.00;;;;;;10435440;28;20091;-55
2023/03/26 12:59:14;;;;;;;17.88;3.60;;;15.70;76.00;;;;;;10438981;28;20100;-55
2023/03/26 13:04:47;;;;;;;14.63;4.13;;;15.60;75.90;;;;;;10442508;28;20033;-55
2023/03/26 13:10:25;;;;;;;16.10;4.38;;;15.60;75.90;;;;;;10442864;28;20060;-55
2023/03/26 13:15:39;;;;;;;17.20;4.78;;;15.60;75.90;;;;;;10443317;28;20068;-54
2023/03/26 13:21:24;;;;;;;16.85;6.18;;;15.60;75.90;;;;;;10443625;28;20033;-55
2023/03/26 13:27:09;;;;;;;15.73;3.75;;;15.50;75.80;;;;;;10442529;28;20036;-55
2023/03/26 13:32:46;;;;;;;16.08;3.60;;;15.50;75.90;;;;;;10442738;28;20144;-55
2023/03/26 13:38:33;;;;;;;9.50;3.15;;;15.60;75.70;;;;;;10443891;28;20017;-56
2023/03/26 13:44:10;;;;;;;16.85;3.22;;;15.60;75.40;;;;;;10444041;28;20377;-55
2023/03/26 13:49:15;;;;;;;14.32;4.45;;;15.70;75.10;;;;;;10442876;28;20456;-56
2023/03/26 13:54:47;;;;;;;12.80;3.90;;;15.70;75.00;;;;;;10433479;28;20033;-55
2023/03/26 14:00:11;;;;;;;9.30;3.03;;;15.70;75.00;;;;;;10443815;28;20088;-55
2023/03/26 14:05:17;;;;;;;9.63;3.17;;;15.70;75.00;;;;;;10442118;28;20017;-54
2023/03/26 14:10:27;;;;;;;11.40;3.03;;;15.70;75.00;;;;;;10443572;28;20099;-55
2023/03/26 14:16:20;;;;;;;12.13;3.70;;;15.70;75.00;;;;;;10442120;28;20056;-54
2023/03/26 14:21:51;;;;;;;7.05;2.33;;;15.70;74.90;;;;;;10429148;28;20084;-55
2023/03/26 14:27:39;;;;;;;9.57;2.30;;;15.70;74.80;;;;;;10441783;28;20017;-55
2023/03/26 14:33:26;;;;;;;13.02;3.13;;;15.60;74.80;;;;;;10441806;28;20044;-54
2023/03/26 14:38:51;;;;;;;6.05;2.88;;;15.60;74.70;;;;;;10444680;28;20049;-55
2023/03/26 14:44:22;;;;;;;10.73;4.50;;;15.70;74.70;;;;;;10449311;28;20114;-55
2023/03/26 14:49:47;;;;;;;6.57;2.50;;;15.70;74.50;;;;;;10450507;28;20024;-54
2023/03/26 14:54:53;;;;;;;8.50;2.20;;;15.70;74.50;;;;;;10435669;28;20028;-56
2023/03/26 15:00:50;;;;;;;6.78;3.50;;;15.70;74.50;;;;;;10448838;28;20404;-55
2023/03/26 15:06:35;;;;;;;7.88;2.72;;;15.60;74.50;;;;;;10443761;28;20039;-54
2023/03/26 15:12:13;;;;;;;6.22;2.20;;;15.60;74.30;;;;;;10427018;28;20880;-56
2023/03/26 15:17:45;;;;;;;10.15;3.47;;;15.60;74.50;;;;;;10446185;28;20030;-54
2023/03/26 15:23:33;;;;;;;7.70;2.38;;;15.70;74.20;;;;;;10447594;28;20021;-54
2023/03/26 15:29:22;;;;;;;8.25;3.22;;;15.70;74.00;;;;;;10447449;28;20028;-54
2023/03/26 15:35:18;;;;;;;6.45;2.13;;;15.70;73.90;;;;;;10447891;28;20562;-54
2023/03/26 15:40:44;;;;;;;5.22;1.80;;;15.70;73.80;;;;;;10446787;28;20396;-54
2023/03/26 15:46:12;;;;;;;12.63;3.15;;;15.80;73.40;;;;;;10446731;28;20104;-55
2023/03/26 15:51:31;;;;;;;10.50;2.30;;;15.80;73.50;;;;;;10447239;28;20040;-55
2023/03/26 15:56:58;;;;;;;13.30;4.70;;;15.90;73.00;;;;;;10449925;28;20082;-56
2023/03/26 16:02:33;;;;;;;20.13;3.20;;;16.20;72.40;;;;;;10441069;28;20029;-54
2023/03/26 16:08:17;;;;;;;23.70;3.78;;;16.40;72.40;;;;;;10447821;28;20048;-56
2023/03/26 16:13:48;;;;;;;21.85;6.03;;;16.60;74.20;;;;;;10449033;28;20049;-54
2023/03/26 16:19:17;;;;;;;18.27;4.20;;;16.60;76.60;;;;;;10447888;28;20512;-54
2023/03/26 16:24:26;;;;;;;15.70;3.92;;;16.70;80.40;;;;;;10447734;28;20029;-56
2023/03/26 16:29:29;;;;;;;20.13;4.88;;;16.90;78.60;;;;;;10447468;28;20021;-54
2023/03/26 16:34:57;;;;;;;14.93;4.25;;;17.00;77.20;;;;;;10439553;28;20170;-53
2023/03/26 16:40:20;;;;;;;19.10;5.38;;;17.10;76.30;;;;;;10447528;28;20020;-55
2023/03/26 16:45:27;;;;;;;14.10;4.22;;;17.00;76.80;;;;;;10448501;28;20064;-53
2023/03/26 16:51:34;;;;;;;16.13;4.28;;;16.90;76.70;;;;;;10436595;28;20036;-58
2023/03/26 16:57:21;;;;;;;24.00;4.85;;;16.60;76.50;;;;;;10427168;28;20037;-56
2023/03/26 17:02:35;;;;;;;18.75;4.57;;;16.40;76.40;;;;;;10445269;28;20052;-55
2023/03/26 17:07:52;;;;;;;13.18;3.80;;;16.30;76.70;;;;;;10444643;28;20033;-54
2023/03/26 17:13:02;;;;;;;15.15;3.53;;;16.10;76.80;;;;;;10446708;28;20045;-54
2023/03/26 17:18:41;;;;;;;15.63;4.38;;;16.00;76.80;;;;;;10446977;28;20028;-55
2023/03/26 17:23:57;;;;;;;10.60;3.63;;;16.00;76.80;;;;;;10445935;28;20082;-54
2023/03/26 17:29:23;;;;;;;7.43;2.78;;;15.90;76.60;;;;;;10446512;28;20071;-55
2023/03/26 17:34:44;;;;;;;10.38;2.97;;;15.90;76.40;;;;;;10446563;28;20079;-54
2023/03/26 17:39:47;;;;;;;12.50;3.85;;;15.80;76.60;;;;;;10446061;28;20047;-55
2023/03/26 17:44:52;;;;;;;11.82;3.38;;;15.80;76.50;;;;;;10446254;28;20032;-54
2023/03/26 17:50:01;;;;;;;9.32;3.00;;;15.70;76.40;;;;;;10444887;28;20785;-55
2023/03/26 17:55:03;;;;;;;9.40;3.00;;;15.70;76.30;;;;;;10445169;28;20036;-53
2023/03/26 18:00:07;;;;;;;11.07;3.03;;;15.70;76.20;;;;;;10444591;28;20453;-55
2023/03/26 18:05:12;;;;;;;11.65;2.50;;;15.60;76.20;;;;;;10444445;28;20029;-55
2023/03/26 18:10:31;;;;;;;10.52;2.22;;;15.60;76.10;;;;;;10428128;28;20033;-54
2023/03/26 18:16:15;;;;;;;6.70;2.15;;;15.60;75.80;;;;;;10449810;28;20110;-55
2023/03/26 18:21:38;;;;;;;6.60;2.30;;;15.60;75.60;;;;;;10435925;28;20021;-54
2023/03/26 18:26:45;;;;;;;11.07;2.30;;;15.80;75.30;;;;;;10435857;28;20017;-55
2023/03/26 18:32:16;;;;;;;5.57;2.65;;;15.70;74.90;;;;;;10451458;28;20043;-55
2023/03/26 18:37:33;;;;;;;8.32;2.13;;;15.80;74.50;;;;;;10452026;28;20028;-55
2023/03/26 18:42:34;;;;;;;8.23;2.08;;;15.90;74.30;;;;;;10451585;28;20533;-56
2023/03/26 18:47:37;;;;;;;9.07;2.28;;;15.90;74.10;;;;;;10451987;28;20108;-55
2023/03/26 18:52:37;;;;;;;6.72;2.45;;;16.00;73.90;;;;;;10445900;28;20033;-56
2023/03/26 18:57:40;;;;;;;9.13;2.35;;;16.00;73.90;;;;;;10445052;28;20032;-55
2023/03/26 19:02:41;;;;;;;8.77;2.42;;;16.00;74.00;;;;;;10447636;28;20021;-54
2023/03/26 19:07:45;;;;;;;7.18;2.97;;;16.00;74.40;;;;;;10451649;28;20143;-57
2023/03/26 19:12:57;;;;;;;11.95;2.42;;;16.00;74.70;;;;;;10447359;28;20047;-54
2023/03/26 19:18:11;;;;;;;10.23;2.90;;;16.00;75.00;;;;;;10450449;28;20365;-57
2023/03/26 19:23:16;;;;;;;9.05;2.42;;;15.90;74.70;;;;;;10461412;28;20020;-56
2023/03/26 19:28:40;;;;;;;8.13;2.72;;;15.80;74.80;;;;;;10447315;28;20025;-56
2023/03/26 19:33:44;;;;;;;8.32;1.77;;;15.70;74.80;;;;;;10445997;28;20114;-56
2023/03/26 19:38:58;;;;;;;6.28;2.15;;;15.70;75.00;;;;;;10432279;28;20024;-56
2023/03/26 19:44:02;;;;;;;6.05;2.00;;;15.70;75.00;;;;;;10448319;28;20025;-56
2023/03/26 19:49:03;;;;;;;5.53;1.30;;;15.60;75.00;;;;;;10446442;28;20072;-57
2023/03/26 19:54:14;;;;;;;7.05;1.83;;;15.60;75.00;;;;;;10432852;28;20048;-56
2023/03/26 19:59:15;;;;;;;6.45;1.88;;;15.50;75.00;;;;;;10446119;28;20041;-56
2023/03/26 20:04:16;;;;;;;4.13;1.55;;;15.50;75.00;;;;;;10452292;28;20698;-56
2023/03/26 20:09:17;;;;;;;5.03;1.67;;;15.40;75.00;;;;;;10449384;28;20051;-56
2023/03/26 20:14:24;;;;;;;5.70;2.90;;;15.40;75.20;;;;;;10449227;28;20040;-56
2023/03/26 20:19:25;;;;;;;5.95;2.05;;;15.40;75.10;;;;;;10448852;28;20040;-56
2023/03/26 20:24:26;;;;;;;5.95;1.73;;;15.40;75.20;;;;;;10448153;28;20116;-55
2023/03/26 20:29:27;;;;;;;3.97;1.60;;;15.30;75.10;;;;;;10448680;28;20029;-55
2023/03/26 20:34:28;;;;;;;5.30;1.85;;;15.30;75.00;;;;;;10447192;28;20033;-56
2023/03/26 20:39:28;;;;;;;7.97;2.13;;;15.30;75.00;;;;;;10447654;28;20048;-55
2023/03/26 20:44:29;;;;;;;3.88;1.55;;;15.20;74.80;;;;;;10463396;28;20013;-56
2023/03/26 20:49:31;;;;;;;3.63;1.85;;;15.20;74.70;;;;;;10447827;28;20025;-56
2023/03/26 20:54:32;;;;;;;4.40;1.55;;;15.20;74.70;;;;;;10447411;28;20032;-55
2023/03/26 20:59:33;;;;;;;3.80;1.30;;;15.20;74.60;;;;;;10445271;28;20103;-55
2023/03/26 21:04:34;;;;;;;5.10;1.63;;;15.20;74.60;;;;;;10447149;28;20017;-56
2023/03/26 21:09:35;;;;;;;6.13;1.38;;;15.20;74.60;;;;;;10447272;28;20120;-56
2023/03/26 21:14:39;;;;;;;4.95;1.42;;;15.20;74.50;;;;;;10446500;28;20129;-55
2023/03/26 21:19:41;;;;;;;6.45;1.20;;;15.20;74.40;;;;;;10445481;28;20029;-56
2023/03/26 21:24:58;;;;;;;4.30;1.67;;;15.10;74.40;;;;;;10445534;28;20029;-57
2023/03/26 21:29:59;;;;;;;3.33;0.90;;;15.10;74.70;;;;;;10445210;28;20033;-56
2023/03/26 21:35:02;;;;;;;3.28;0.93;;;15.10;74.50;;;;;;10444967;28;20013;-57
2023/03/26 21:40:13;;;;;;;3.88;1.33;;;15.10;74.50;;;;;;10446284;28;20260;-56
2023/03/26 21:45:14;;;;;;;2.30;0.95;;;15.10;74.60;;;;;;10444761;28;20105;-56
2023/03/26 21:50:20;;;;;;;3.90;1.20;;;15.10;74.40;;;;;;10445067;28;20048;-57
2023/03/26 21:55:24;;;;;;;6.10;1.50;;;15.00;74.70;;;;;;10444318;28;20487;-57
2023/03/26 22:00:34;;;;;;;4.32;1.45;;;15.00;74.40;;;;;;10444008;28;20033;-56
2023/03/26 22:05:57;;;;;;;3.03;1.02;;;15.00;74.60;;;;;;10444114;28;20087;-56
2023/03/26 22:10:58;;;;;;;4.57;1.33;;;15.00;74.60;;;;;;10444561;28;20033;-55
2023/03/26 22:15:58;;;;;;;2.35;0.60;;;15.00;74.70;;;;;;10445651;28;20024;-56
2023/03/26 22:20:59;;;;;;;3.40;1.45;;;15.00;74.80;;;;;;10444011;28;20108;-55
2023/03/26 22:26:02;;;;;;;5.85;1.02;;;14.90;74.60;;;;;;10443760;28;20033;-56
2023/03/26 22:31:08;;;;;;;3.47;0.90;;;14.90;74.70;;;;;;10444776;28;20029;-55
2023/03/26 22:36:11;;;;;;;2.15;1.00;;;14.90;74.40;;;;;;10445247;28;20395;-55
2023/03/26 22:41:12;;;;;;;5.03;0.80;;;14.90;74.70;;;;;;10443830;28;20074;-56
2023/03/26 22:46:13;;;;;;;1.58;0.70;;;14.90;74.60;;;;;;10445147;28;20049;-56
2023/03/26 22:51:14;;;;;;;2.58;1.00;;;14.90;74.40;;;;;;10460147;28;20032;-56
2023/03/26 22:56:16;;;;;;;2.13;0.80;;;14.90;74.30;;;;;;10443623;28;20025;-56
2023/03/26 23:01:21;;;;;;;3.13;0.88;;;14.90;74.40;;;;;;10462238;28;20460;-55
2023/03/26 23:06:22;;;;;;;2.55;0.80;;;14.80;74.10;;;;;;10435421;28;20021;-56
2023/03/26 23:11:23;;;;;;;2.70;0.82;;;14.80;74.00;;;;;;10451211;28;20093;-56
2023/03/26 23:16:23;;;;;;;2.58;0.80;;;14.80;74.10;;;;;;10450888;28;20025;-56
2023/03/26 23:21:24;;;;;;;3.03;1.30;;;14.80;74.10;;;;;;10450136;28;20453;-56
2023/03/26 23:26:28;;;;;;;2.70;1.02;;;14.80;73.70;;;;;;10451168;28;20021;-56
2023/03/26 23:31:30;;;;;;;2.45;0.63;;;14.80;73.90;;;;;;10451132;28;20029;-56
2023/03/26 23:36:31;;;;;;;3.58;1.17;;;14.80;73.90;;;;;;10450726;28;20013;-56
2023/03/26 23:41:32;;;;;;;2.63;0.80;;;14.80;73.90;;;;;;10466143;28;20117;-55
2023/03/26 23:46:33;;;;;;;3.53;1.15;;;14.80;73.80;;;;;;10450308;28;20032;-56
2023/03/26 23:51:34;;;;;;;3.22;1.48;;;14.80;73.60;;;;;;10449815;28;20682;-56
2023/03/26 23:56:35;;;;;;;3.17;0.88;;;14.70;73.60;;;;;;10436722;28;20013;-54
